Time;durP1;ratioP1;P1;durP2;ratioP2;P2;SDS_P1;SDS_P2;PMS_P1;PMS_P2;Temp;Humidity;BMP_temperature;BMP_pressure;BME280_temperature;BME280_humidity;BME280_pressure;Samples;Min_cycle;Max_cycle;Signal;HPM_P1;HPM_P2
2023/09/03 16:15:25;;;;;;;10.50;4.80;;;;;;;28.32;31.96;99471.41;79990;1301;3013445;-65
2023/09/03 16:17:53;;;;;;;13.50;6.80;;;;;;;28.02;32.27;99474.27;79161;1306;3011825;-65
2023/09/03 16:20:22;;;;;;;14.90;6.70;;;;;;;27.75;32.73;99471.98;78421;1303;3011984;-66
2023/09/03 16:22:49;;;;;;;14.70;6.10;;;;;;;27.52;32.94;99473.01;78963;1305;3012888;-64
2023/09/03 16:25:16;;;;;;;6.30;4.60;;;;;;;27.31;33.29;99474.34;79105;1306;3011639;-63
2023/09/03 16:27:43;;;;;;;7.30;5.00;;;;;;;27.17;33.62;99471.62;75261;1306;3141341;-65
2023/09/03 16:30:11;;;;;;;5.80;4.10;;;;;;;27.00;33.99;99473.26;79087;1300;3013679;-63
2023/09/03 16:32:37;;;;;;;6.50;4.20;;;;;;;26.85;34.31;99472.80;79023;1300;3012124;-63
2023/09/03 16:35:06;;;;;;;7.90;3.80;;;;;;;26.72;34.56;99473.71;77930;1300;3050473;-64
2023/09/03 16:37:33;;;;;;;12.40;4.70;;;;;;;26.58;34.77;99474.95;79162;1303;3013401;-63
2023/09/03 16:39:59;;;;;;;7.20;4.60;;;;;;;26.47;34.90;99476.28;81729;1302;3011389;-64
2023/09/03 16:42:27;;;;;;;8.30;5.10;;;;;;;26.32;35.20;99478.69;80497;1300;3050676;-64
2023/09/03 16:44:57;;;;;;;8.90;5.40;;;;;;;26.15;35.59;99482.21;81759;1302;3013127;-64
2023/09/03 16:47:28;;;;;;;10.40;5.70;;;;;;;26.06;35.75;99478.89;81196;1300;3011312;-64
2023/09/03 16:49:56;;;;;;;9.30;5.60;;;;;;;25.94;35.99;99475.58;81752;1299;3011329;-66
2023/09/03 16:52:24;;;;;;;10.90;5.80;;;;;;;25.82;36.23;99475.97;80507;1300;3028900;-62
2023/09/03 16:54:54;;;;;;;21.20;6.70;;;;;;;25.71;36.60;99476.52;81754;1300;3012671;-65
2023/09/03 16:57:23;;;;;;;15.60;6.80;;;;;;;25.60;36.84;99475.04;81201;1300;3011337;-65
2023/09/03 16:59:50;;;;;;;11.80;6.90;;;;;;;25.51;37.02;99483.22;81773;1300;3013156;-65
2023/09/03 17:02:16;;;;;;;15.30;8.20;;;;;;;25.39;37.31;99477.88;81744;1300;3010776;-65
2023/09/03 17:04:44;;;;;;;11.60;7.90;;;;;;;25.33;37.34;99481.47;80559;1299;3025796;-66
2023/09/03 17:07:11;;;;;;;10.10;7.10;;;;;;;25.18;37.67;99482.92;81840;1298;3012642;-65
2023/09/03 17:09:38;;;;;;;17.40;8.30;;;;;;;25.08;37.89;99489.95;81812;1298;3011102;-66
2023/09/03 17:12:06;;;;;;;15.90;7.90;;;;;;;25.02;38.17;99495.27;80561;1299;3025948;-65
2023/09/03 17:14:33;;;;;;;17.90;8.20;;;;;;;24.98;38.20;99494.55;81823;1299;3018361;-65
2023/09/03 17:17:05;;;;;;;15.80;7.40;;;;;;;24.88;38.57;99494.41;81811;1298;3011082;-65
2023/09/03 17:19:34;;;;;;;17.30;7.00;;;;;;;24.81;38.81;99487.98;80568;1299;3048313;-63
2023/09/03 17:22:01;;;;;;;14.60;7.00;;;;;;;24.70;39.09;99484.41;81832;1299;3013691;-64
2023/09/03 17:24:27;;;;;;;11.10;6.70;;;;;;;24.61;39.45;99482.52;81830;1300;3011421;-65
2023/09/03 17:26:55;;;;;;;14.60;7.10;;;;;;;24.54;39.49;99486.09;80550;1300;3053216;-65
2023/09/03 17:29:22;;;;;;;15.10;7.30;;;;;;;24.47;39.78;99486.02;81854;1300;3018747;-63
2023/09/03 17:31:48;;;;;;;18.40;7.40;;;;;;;24.33;39.99;99485.02;81790;1299;3011240;-64
2023/09/03 17:34:18;;;;;;;15.80;8.70;;;;;;;24.20;40.24;99482.15;80563;1298;3025740;-64
2023/09/03 17:36:45;;;;;;;17.10;8.30;;;;;;;24.12;40.48;99484.83;81823;1299;3011155;-65
2023/09/03 17:39:13;;;;;;;14.60;8.30;;;;;;;24.08;40.53;99485.11;81812;1300;3011193;-65
2023/09/03 17:41:41;;;;;;;15.40;8.90;;;;;;;23.97;40.69;99484.13;80543;1299;3052028;-62
2023/09/03 17:44:08;;;;;;;14.00;9.30;;;;;;;23.92;41.10;99481.80;81817;1300;3018783;-64
2023/09/03 17:46:35;;;;;;;14.30;8.80;;;;;;;23.88;40.90;99485.31;81821;1298;3011186;-63
2023/09/03 17:49:03;;;;;;;16.90;8.50;;;;;;;23.78;41.06;99486.17;80591;1299;3026623;-65
2023/09/03 17:51:30;;;;;;;15.80;8.50;;;;;;;23.77;41.17;99488.16;81845;1301;3011238;-63
2023/09/03 17:53:56;;;;;;;11.50;7.50;;;;;;;23.65;41.37;99481.06;81844;1299;3011243;-65
2023/09/03 17:56:25;;;;;;;14.10;7.60;;;;;;;23.58;41.42;99486.74;80595;1300;3052516;-63
2023/09/03 17:58:51;;;;;;;14.40;6.70;;;;;;;23.47;41.71;99483.85;81878;1298;3018205;-64
2023/09/03 18:01:18;;;;;;;11.00;6.80;;;;;;;23.41;41.96;99482.41;81821;1303;3011186;-65
2023/09/03 18:03:46;;;;;;;11.40;5.70;;;;;;;23.34;42.05;99479.66;80597;1299;3026184;-64
2023/09/03 18:06:15;;;;;;;10.80;6.20;;;;;;;23.17;42.63;99475.86;81879;1297;3012676;-63
2023/09/03 18:08:43;;;;;;;12.20;5.40;;;;;;;23.14;42.56;99468.88;81894;1297;3012628;-65
2023/09/03 18:11:14;;;;;;;13.10;6.30;;;;;;;23.14;42.51;99469.20;80624;1299;3051919;-63
2023/09/03 18:13:41;;;;;;;8.80;5.40;;;;;;;23.08;42.88;99465.46;81885;1300;3011252;-66
2023/09/03 18:16:13;;;;;;;9.10;5.60;;;;;;;23.08;42.72;99466.67;80603;1297;3049150;-64
2023/09/03 18:18:40;;;;;;;8.90;5.00;;;;;;;23.03;42.93;99464.24;81872;1297;3011287;-63
2023/09/03 18:21:08;;;;;;;9.30;5.50;;;;;;;22.99;42.83;99465.70;80665;1297;3025870;-64
2023/09/03 18:23:34;;;;;;;10.00;5.30;;;;;;;22.96;42.78;99464.27;81909;1297;3018784;-64
2023/09/03 18:26:01;;;;;;;9.20;5.30;;;;;;;22.97;42.93;99463.96;81882;1297;3011504;-63
2023/09/03 18:28:29;;;;;;;8.30;5.30;;;;;;;22.94;42.92;99468.34;80662;1300;3027326;-63
2023/09/03 18:30:57;;;;;;;8.10;5.20;;;;;;;22.91;42.90;99463.58;81903;1297;3018031;-63
2023/09/03 18:33:24;;;;;;;11.70;5.30;;;;;;;22.81;43.20;99463.22;81894;1297;3011156;-65
2023/09/03 18:35:55;;;;;;;13.10;5.80;;;;;;;22.74;43.53;99465.25;80667;1297;3048908;-64
2023/09/03 18:38:22;;;;;;;13.20;5.40;;;;;;;22.66;43.69;99465.98;81882;1297;3011298;-65
2023/09/03 18:40:51;;;;;;;12.30;5.40;;;;;;;22.64;43.84;99461.41;81332;1298;3011217;-64
2023/09/03 18:43:18;;;;;;;8.70;5.00;;;;;;;22.59;43.92;99467.59;81899;1300;3018610;-65
2023/09/03 18:45:44;;;;;;;10.30;5.90;;;;;;;22.56;44.07;99464.59;81888;1298;3011246;-65
2023/09/03 18:48:12;;;;;;;11.90;6.00;;;;;;;22.44;44.27;99466.56;80659;1297;3025714;-64
2023/09/03 18:50:38;;;;;;;11.90;6.10;;;;;;;22.46;44.16;99463.94;81920;1297;3011167;-65
2023/09/03 18:53:05;;;;;;;11.50;6.10;;;;;;;22.37;44.35;99467.38;81854;1297;3011350;-63
2023/09/03 18:55:37;;;;;;;15.60;6.60;;;;;;;22.29;44.39;99463.63;80641;1297;3025955;-64
2023/09/03 18:58:04;;;;;;;9.30;5.70;;;;;;;22.27;44.58;99465.05;81965;1297;3011103;-64
2023/09/03 19:00:32;;;;;;;12.10;5.20;;;;;;;22.23;44.87;99465.39;80743;1298;3051704;-64
2023/09/03 19:02:59;;;;;;;9.40;4.90;;;;;;;22.14;45.03;99472.04;81888;1298;3012706;-64
2023/09/03 19:05:25;;;;;;;10.90;5.10;;;;;;;22.06;44.94;99470.05;81968;1298;3011128;-64
2023/09/03 19:07:53;;;;;;;11.20;5.10;;;;;;;21.95;45.48;99467.67;80753;1296;3027665;-64
2023/09/03 19:10:20;;;;;;;14.90;5.20;;;;;;;21.83;46.15;99466.63;82026;1297;3018169;-63
2023/09/03 19:12:47;;;;;;;7.80;4.80;;;;;;;21.78;46.17;99462.52;81967;1298;3011313;-63
2023/09/03 19:15:15;;;;;;;11.00;5.70;;;;;;;21.68;46.55;99456.72;80734;1297;3025637;-63
2023/09/03 19:17:41;;;;;;;11.70;5.10;;;;;;;21.66;46.74;99458.49;82000;1297;3012705;-64
2023/09/03 19:20:08;;;;;;;9.10;5.00;;;;;;;21.60;47.18;99456.74;81959;1301;3011517;-63
2023/09/03 19:22:36;;;;;;;11.40;5.20;;;;;;;21.62;46.82;99451.96;80713;1297;3026613;-64
2023/09/03 19:25:03;;;;;;;8.30;5.10;;;;;;;21.65;46.61;99443.45;82005;1298;3018222;-64
2023/09/03 19:27:30;;;;;;;8.90;4.70;;;;;;;21.65;46.57;99435.04;81971;1296;3011363;-63
2023/09/03 19:30:01;;;;;;;8.20;4.70;;;;;;;21.62;46.30;99437.20;80752;1300;3051039;-63
2023/09/03 19:32:30;;;;;;;9.20;4.40;;;;;;;21.58;46.62;99432.75;82020;1296;3012480;-64
2023/09/03 19:34:59;;;;;;;7.80;4.60;;;;;;;21.58;46.71;99432.96;81430;1296;3011423;-64
2023/09/03 19:37:26;;;;;;;8.60;4.10;;;;;;;21.57;46.73;99432.85;81907;1297;3012697;-64
2023/09/03 19:39:52;;;;;;;7.70;4.10;;;;;;;21.54;46.56;99429.99;81893;1297;3011257;-63
2023/09/03 19:42:20;;;;;;;6.40;3.90;;;;;;;21.50;46.70;99428.02;80633;1300;3025850;-65
2023/09/03 19:44:47;;;;;;;9.90;4.20;;;;;;;21.50;46.69;99427.98;81899;1300;3013276;-63
2023/09/03 19:47:14;;;;;;;6.30;4.20;;;;;;;21.42;46.93;99428.55;81883;1301;3011452;-63
2023/09/03 19:49:42;;;;;;;10.90;4.50;;;;;;;21.35;46.84;99425.16;80649;1297;3025872;-63
2023/09/03 19:52:14;;;;;;;11.80;3.80;;;;;;;21.31;47.12;99423.98;81898;1297;3011368;-63
2023/09/03 19:54:42;;;;;;;7.70;3.30;;;;;;;21.35;47.00;99428.27;80638;1297;3053044;-63
2023/09/03 19:57:09;;;;;;;10.00;4.20;;;;;;;21.32;47.06;99430.83;81903;1300;3013146;-63
2023/09/03 19:59:36;;;;;;;7.50;3.80;;;;;;;21.27;47.16;99427.68;81898;1297;3011195;-63
2023/09/03 20:02:05;;;;;;;12.20;3.90;;;;;;;21.20;47.35;99424.89;80656;1298;3068787;-63
2023/09/03 20:04:35;;;;;;;6.70;4.30;;;;;;;21.18;47.46;99433.04;81964;1297;3012930;-63
2023/09/03 20:07:03;;;;;;;7.10;3.80;;;;;;;21.17;47.21;99429.63;80683;1297;3049541;-63
2023/09/03 20:09:30;;;;;;;6.80;3.90;;;;;;;21.20;46.97;99429.45;81910;1297;3012668;-64
2023/09/03 20:12:02;;;;;;;6.60;3.60;;;;;;;21.16;47.25;99432.23;81452;1297;3012341;-64
2023/09/03 20:14:29;;;;;;;8.70;3.90;;;;;;;21.15;47.05;99437.98;81921;1299;3012643;-63
2023/09/03 20:16:56;;;;;;;10.50;3.80;;;;;;;21.14;46.98;99436.88;81857;1300;3011464;-63
2023/09/03 20:19:24;;;;;;;7.10;3.60;;;;;;;21.12;47.14;99436.14;80619;1298;3049480;-64
2023/09/03 20:21:50;;;;;;;7.60;3.50;;;;;;;21.05;47.71;99433.73;81901;1297;3018832;-64
2023/09/03 20:24:18;;;;;;;7.00;3.50;;;;;;;21.04;47.70;99435.92;81891;1297;3011216;-63
2023/09/03 20:26:45;;;;;;;7.00;3.80;;;;;;;20.99;47.84;99434.35;80654;1297;3049095;-64
2023/09/03 20:29:14;;;;;;;7.80;3.60;;;;;;;20.94;48.11;99435.90;81890;1300;3013383;-64
2023/09/03 20:31:43;;;;;;;4.70;3.90;;;;;;;20.83;48.46;99439.59;81907;1300;3011187;-64
2023/09/03 20:34:11;;;;;;;6.60;4.00;;;;;;;20.77;48.88;99435.42;80651;1298;3052100;-64
2023/09/03 20:36:39;;;;;;;10.50;4.00;;;;;;;20.65;49.04;99437.16;81913;1297;3012431;-64
2023/09/03 20:39:06;;;;;;;6.10;3.80;;;;;;;20.64;49.20;99430.92;81844;1298;3011646;-64
2023/09/03 20:41:34;;;;;;;6.70;4.40;;;;;;;20.65;49.42;99431.66;80639;1298;3050547;-65
2023/09/03 20:44:00;;;;;;;6.80;3.80;;;;;;;20.61;49.16;99428.64;81905;1298;3013159;-64
2023/09/03 20:46:27;;;;;;;6.90;4.40;;;;;;;20.62;48.93;99430.19;81862;1300;3011244;-64
2023/09/03 20:49:00;;;;;;;10.40;4.20;;;;;;;20.58;48.92;99428.73;80653;1297;3026401;-64
2023/09/03 20:51:27;;;;;;;;;;;;;;;20.56;49.08;99424.67;81912;1297;3011264;-64
2023/09/03 20:53:55;;;;;;;7.40;3.80;;;;;;;20.53;49.08;99430.84;80646;1297;3050876;-64
2023/09/03 20:56:22;;;;;;;8.00;4.00;;;;;;;20.48;49.15;99422.50;81891;1297;3011898;-63
2023/09/03 20:58:48;;;;;;;8.10;4.30;;;;;;;20.48;49.46;99426.60;81882;1297;3011209;-64
2023/09/03 21:01:16;;;;;;;12.40;5.80;;;;;;;20.47;49.41;99427.02;80670;1302;3026953;-63
2023/09/03 21:03:43;;;;;;;11.00;5.10;;;;;;;20.35;49.95;99427.55;81954;1297;3012666;-63
2023/09/03 21:06:10;;;;;;;7.90;4.70;;;;;;;20.31;50.22;99428.70;81943;1296;3011469;-63
2023/09/03 21:08:38;;;;;;;7.60;4.00;;;;;;;20.19;50.54;99435.33;80664;1297;3025941;-63
2023/09/03 21:11:05;;;;;;;10.00;4.30;;;;;;;20.14;50.88;99424.92;81898;1297;3012624;-63
2023/09/03 21:13:32;;;;;;;8.70;4.30;;;;;;;20.18;50.72;99426.84;81885;1297;3011237;-64
2023/09/03 21:16:06;;;;;;;8.70;4.50;;;;;;;20.16;50.74;99420.98;80644;1297;3025328;-67
2023/09/03 21:18:32;;;;;;;9.60;3.90;;;;;;;20.06;51.02;99419.64;81844;1299;3011408;-65
2023/09/03 21:21:02;;;;;;;6.80;3.90;;;;;;;20.04;50.75;99418.20;80612;1299;3051409;-66
2023/09/03 21:23:31;;;;;;;7.40;3.80;;;;;;;19.97;51.09;99417.70;81890;1297;3011233;-66
2023/09/03 21:26:00;;;;;;;6.20;3.70;;;;;;;20.02;50.80;99411.84;80642;1297;3048645;-65
2023/09/03 21:28:26;;;;;;;6.60;3.50;;;;;;;20.00;50.75;99412.59;81869;1299;3012942;-66
2023/09/03 21:30:53;;;;;;;7.30;3.50;;;;;;;20.02;50.67;99412.45;81851;1297;3011335;-66
2023/09/03 21:33:22;;;;;;;14.70;4.60;;;;;;;19.96;50.58;99420.85;80629;1297;3052373;-66
2023/09/03 21:35:48;;;;;;;11.70;4.80;;;;;;;20.01;50.37;99415.37;81874;1298;3013009;-66
2023/09/03 21:38:15;;;;;;;9.30;4.60;;;;;;;20.03;50.40;99417.08;81900;1297;3011251;-66
2023/09/03 21:40:43;;;;;;;12.70;4.80;;;;;;;19.98;50.89;99419.34;80632;1297;3025786;-66
2023/09/03 21:43:09;;;;;;;7.50;4.20;;;;;;;19.95;50.93;99422.36;81880;1299;3013030;-66
2023/09/03 21:45:36;;;;;;;11.20;4.20;;;;;;;19.92;51.07;99423.69;81892;1297;3011380;-65
2023/09/03 21:48:07;;;;;;;7.30;3.80;;;;;;;19.86;51.29;99421.34;80651;1297;3024827;-66
2023/09/03 21:50:33;;;;;;;9.30;4.50;;;;;;;19.84;51.40;99421.29;81864;1299;3011218;-66
2023/09/03 21:53:02;;;;;;;9.20;4.70;;;;;;;19.79;51.51;99418.70;81352;1297;3011353;-65
2023/09/03 21:55:29;;;;;;;9.00;4.60;;;;;;;19.74;51.86;99418.75;81895;1300;3012976;-67
2023/09/03 21:57:56;;;;;;;6.90;4.60;;;;;;;19.73;51.90;99421.87;81903;1297;3011474;-66
2023/09/03 22:00:24;;;;;;;7.30;4.50;;;;;;;19.69;52.20;99420.48;80617;1301;3025756;-65
2023/09/03 22:02:50;;;;;;;7.50;4.60;;;;;;;19.65;52.28;99422.66;81876;1303;3012946;-66
2023/09/03 22:05:17;;;;;;;9.10;5.30;;;;;;;19.63;52.30;99421.42;81861;1303;3011189;-65
2023/09/03 22:07:45;;;;;;;8.80;4.50;;;;;;;19.61;52.36;99419.63;80649;1297;3026176;-68
2023/09/03 22:10:12;;;;;;;10.30;5.10;;;;;;;19.61;52.37;99419.46;81889;1297;3012971;-68
2023/09/03 22:12:39;;;;;;;12.80;5.60;;;;;;;19.59;52.43;99414.68;81846;1297;3011256;-67
2023/09/03 22:15:07;;;;;;;9.20;5.10;;;;;;;19.62;52.22;99411.75;80620;1296;3026304;-66
2023/09/03 22:17:34;;;;;;;9.60;5.00;;;;;;;19.57;52.93;99410.10;81935;1301;3013313;-65
2023/09/03 22:20:04;;;;;;;8.60;5.00;;;;;;;19.54;52.60;99404.88;81880;1297;3011478;-66
2023/09/03 22:22:34;;;;;;;11.60;5.20;;;;;;;19.53;53.05;99404.11;80637;1297;3051278;-66
2023/09/03 22:25:00;;;;;;;12.40;5.70;;;;;;;19.49;53.13;99403.98;81918;1297;3012577;-67
2023/09/03 22:27:27;;;;;;;11.90;5.60;;;;;;;19.45;53.08;99400.94;81912;1297;3010933;-66
2023/09/03 22:29:55;;;;;;;8.00;4.80;;;;;;;19.46;52.88;99405.87;80644;1297;3026208;-66
2023/09/03 22:32:21;;;;;;;8.50;4.90;;;;;;;19.48;52.94;99406.76;81916;1297;3018308;-65
2023/09/03 22:34:48;;;;;;;11.60;5.90;;;;;;;19.49;52.83;99405.36;81892;1297;3011230;-66
2023/09/03 22:37:16;;;;;;;9.20;5.70;;;;;;;19.47;53.02;99402.55;80641;1297;3026606;-66
2023/09/03 22:39:42;;;;;;;12.70;5.30;;;;;;;19.47;52.89;99395.65;81889;1297;3012667;-66
2023/09/03 22:42:09;;;;;;;9.20;4.60;;;;;;;19.44;53.11;99394.89;81890;1297;3011361;-66
2023/09/03 22:44:37;;;;;;;8.60;4.70;;;;;;;19.44;52.64;99396.56;80641;1297;3026227;-66
2023/09/03 22:47:06;;;;;;;12.80;5.20;;;;;;;19.45;53.09;99393.83;81901;1300;3012518;-66
2023/09/03 22:49:32;;;;;;;7.70;4.50;;;;;;;19.46;52.87;99395.17;81877;1300;3011619;-67
2023/09/03 22:52:00;;;;;;;6.80;4.30;;;;;;;19.44;52.93;99389.04;80648;1297;3051418;-66
2023/09/03 22:54:27;;;;;;;12.10;4.70;;;;;;;19.43;53.20;99384.48;81935;1297;3012279;-66
2023/09/03 22:56:53;;;;;;;8.80;5.20;;;;;;;19.45;52.87;99383.39;81863;1297;3011112;-66
2023/09/03 22:59:21;;;;;;;8.10;4.50;;;;;;;19.41;53.40;99375.61;80630;1297;3025854;-65
2023/09/03 23:01:48;;;;;;;10.30;5.30;;;;;;;19.38;53.32;99377.66;81925;1300;3012846;-65
2023/09/03 23:04:14;;;;;;;8.60;5.10;;;;;;;19.40;53.11;99379.77;81886;1300;3011112;-65
2023/09/03 23:06:42;;;;;;;10.70;5.60;;;;;;;19.40;53.12;99378.52;80643;1297;3026049;-66
2023/09/03 23:09:09;;;;;;;9.60;4.60;;;;;;;19.40;53.21;99372.98;81923;1297;3012725;-66
2023/09/03 23:11:35;;;;;;;7.60;4.70;;;;;;;19.39;53.30;99373.34;81879;1297;3011107;-65
2023/09/03 23:14:04;;;;;;;8.20;4.60;;;;;;;19.36;53.29;99375.38;80645;1297;3026158;-66
2023/09/03 23:16:30;;;;;;;9.50;4.30;;;;;;;19.35;53.45;99368.77;81916;1302;3012628;-66
2023/09/03 23:18:57;;;;;;;8.40;5.10;;;;;;;19.34;53.42;99371.34;81882;1302;3011116;-66
2023/09/03 23:21:25;;;;;;;12.70;5.40;;;;;;;19.30;53.53;99370.86;80638;1297;3026589;-67
2023/09/03 23:23:51;;;;;;;12.80;5.20;;;;;;;19.28;54.02;99368.34;81895;1299;3012928;-67
2023/09/03 23:26:18;;;;;;;11.70;5.50;;;;;;;19.30;53.83;99370.48;81903;1297;3011099;-67
2023/09/03 23:28:46;;;;;;;11.00;5.50;;;;;;;19.27;54.04;99371.69;80648;1297;3027019;-65
2023/09/03 23:31:13;;;;;;;10.00;6.00;;;;;;;19.22;54.36;99372.45;81945;1297;3018386;-68
2023/09/03 23:33:40;;;;;;;9.80;6.40;;;;;;;19.19;54.40;99370.55;81870;1298;3011320;-66
2023/09/03 23:36:09;;;;;;;13.10;6.10;;;;;;;19.12;54.46;99368.92;80642;1297;3026092;-66
2023/09/03 23:38:36;;;;;;;12.80;5.80;;;;;;;19.09;54.80;99365.22;81891;1297;3011438;-65
2023/09/03 23:41:02;;;;;;;15.90;6.10;;;;;;;19.07;54.81;99365.50;81940;1297;3011513;-66
2023/09/03 23:43:30;;;;;;;10.50;5.80;;;;;;;19.05;54.99;99364.79;80631;1297;3049446;-68
2023/09/03 23:45:57;;;;;;;10.90;5.50;;;;;;;18.99;55.15;99369.11;81935;1297;3012610;-67
2023/09/03 23:48:24;;;;;;;8.50;5.40;;;;;;;18.92;55.63;99372.26;81892;1300;3011286;-66
2023/09/03 23:50:52;;;;;;;11.20;5.20;;;;;;;18.90;55.32;99373.98;80631;1298;3026330;-65
2023/09/03 23:53:19;;;;;;;12.10;5.40;;;;;;;18.85;55.63;99373.75;81905;1297;3013085;-65
2023/09/03 23:55:45;;;;;;;9.10;5.90;;;;;;;18.80;55.74;99371.23;81896;1297;3011241;-65
2023/09/03 23:58:13;;;;;;;10.30;5.70;;;;;;;18.77;55.42;99367.63;80664;1297;3026154;-65
